sensor_id;sensor_type;location;lat;lon;timestamp;pressure;altitude;pressure_sealevel;temperature;humidity
51083;BME280;37131;42.694;23.350;2023-07-16T00:00:50;95662.63;;;23.55;89.39
51083;BME280;37131;42.694;23.350;2023-07-16T00:03:15;95671.28;;;23.47;89.24
51083;BME280;37131;42.694;23.350;2023-07-16T00:05:40;95660.06;;;23.36;88.87
51083;BME280;37131;42.694;23.350;2023-07-16T00:08:06;95660.97;;;23.32;89.53
51083;BME280;37131;42.694;23.350;2023-07-16T00:10:34;95657.41;;;23.36;88.83
51083;BME280;37131;42.694;23.350;2023-07-16T00:12:59;95665.28;;;23.41;88.34
51083;BME280;37131;42.694;23.350;2023-07-16T00:15:25;95660.66;;;23.47;88.25
51083;BME280;37131;42.694;23.350;2023-07-16T00:17:50;95659.88;;;23.46;87.70
51083;BME280;37131;42.694;23.350;2023-07-16T00:20:15;95658.28;;;23.45;87.29
51083;BME280;37131;42.694;23.350;2023-07-16T00:22:41;95657.09;;;23.52;86.28
51083;BME280;37131;42.694;23.350;2023-07-16T00:25:06;95651.78;;;23.52;86.26
51083;BME280;37131;42.694;23.350;2023-07-16T00:27:32;95651.47;;;23.53;86.22
51083;BME280;37131;42.694;23.350;2023-07-16T00:29:57;95649.03;;;23.57;85.95
51083;BME280;37131;42.694;23.350;2023-07-16T00:32:23;95656.81;;;23.67;85.06
51083;BME280;37131;42.694;23.350;2023-07-16T00:34:48;95657.28;;;23.69;84.66
51083;BME280;37131;42.694;23.350;2023-07-16T00:37:13;95653.13;;;23.77;84.22
51083;BME280;37131;42.694;23.350;2023-07-16T00:39:38;95651.56;;;23.76;84.29
51083;BME280;37131;42.694;23.350;2023-07-16T00:42:04;95648.13;;;23.61;85.13
51083;BME280;37131;42.694;23.350;2023-07-16T00:44:29;95658.19;;;23.64;84.64
51083;BME280;37131;42.694;23.350;2023-07-16T00:46:54;95650.88;;;23.70;84.88
51083;BME280;37131;42.694;23.350;2023-07-16T00:49:19;95655.31;;;23.75;83.80
51083;BME280;37131;42.694;23.350;2023-07-16T00:51:45;95653.63;;;23.65;84.95
51083;BME280;37131;42.694;23.350;2023-07-16T00:54:11;95654.63;;;23.69;84.72
51083;BME280;37131;42.694;23.350;2023-07-16T00:56:36;95649.22;;;23.74;84.63
51083;BME280;37131;42.694;23.350;2023-07-16T00:59:02;95650.00;;;23.61;84.51
51083;BME280;37131;42.694;23.350;2023-07-16T01:01:27;95655.63;;;23.59;84.83
51083;BME280;37131;42.694;23.350;2023-07-16T01:03:52;95654.63;;;23.41;85.53
51083;BME280;37131;42.694;23.350;2023-07-16T01:06:22;95653.84;;;23.41;86.22
51083;BME280;37131;42.694;23.350;2023-07-16T01:09:13;95659.88;;;23.46;85.81
51083;BME280;37131;42.694;23.350;2023-07-16T01:11:36;95657.50;;;23.45;85.82
51083;BME280;37131;42.694;23.350;2023-07-16T01:14:02;95654.16;;;23.39;86.45
51083;BME280;37131;42.694;23.350;2023-07-16T01:16:28;95652.19;;;23.45;86.17
51083;BME280;37131;42.694;23.350;2023-07-16T01:18:53;95661.16;;;23.49;85.29
51083;BME280;37131;42.694;23.350;2023-07-16T01:21:19;95656.81;;;23.39;85.76
51083;BME280;37131;42.694;23.350;2023-07-16T01:31:28;95655.25;;;23.24;86.69
51083;BME280;37131;42.694;23.350;2023-07-16T01:33:54;95651.81;;;23.24;86.85
51083;BME280;37131;42.694;23.350;2023-07-16T01:36:19;95653.94;;;23.22;86.54
51083;BME280;37131;42.694;23.350;2023-07-16T01:38:45;95652.03;;;23.08;87.36
51083;BME280;37131;42.694;23.350;2023-07-16T01:41:11;95653.91;;;23.08;87.14
51083;BME280;37131;42.694;23.350;2023-07-16T01:43:36;95652.81;;;22.95;88.00
51083;BME280;37131;42.694;23.350;2023-07-16T01:46:02;95654.94;;;22.79;88.16
51083;BME280;37131;42.694;23.350;2023-07-16T01:48:31;95658.28;;;22.71;88.85
51083;BME280;37131;42.694;23.350;2023-07-16T01:50:57;95662.31;;;22.68;88.98
51083;BME280;37131;42.694;23.350;2023-07-16T01:53:22;95654.63;;;22.67;89.32
51083;BME280;37131;42.694;23.350;2023-07-16T01:55:48;95660.84;;;22.76;88.72
51083;BME280;37131;42.694;23.350;2023-07-16T01:58:13;95661.13;;;22.74;88.83
51083;BME280;37131;42.694;23.350;2023-07-16T02:00:38;95663.00;;;22.74;88.50
51083;BME280;37131;42.694;23.350;2023-07-16T02:03:03;95668.75;;;22.81;87.73
51083;BME280;37131;42.694;23.350;2023-07-16T02:05:29;95664.56;;;22.75;87.78
51083;BME280;37131;42.694;23.350;2023-07-16T02:07:54;95666.25;;;22.71;87.47
51083;BME280;37131;42.694;23.350;2023-07-16T02:10:19;95661.84;;;22.80;88.02
51083;BME280;37131;42.694;23.350;2023-07-16T02:12:45;95658.75;;;22.73;87.82
51083;BME280;37131;42.694;23.350;2023-07-16T02:15:10;95655.09;;;22.69;88.00
51083;BME280;37131;42.694;23.350;2023-07-16T02:17:35;95657.00;;;22.68;88.26
51083;BME280;37131;42.694;23.350;2023-07-16T02:20:01;95655.69;;;22.66;88.67
51083;BME280;37131;42.694;23.350;2023-07-16T02:22:26;95657.06;;;22.63;88.49
51083;BME280;37131;42.694;23.350;2023-07-16T02:24:51;95660.13;;;22.70;88.24
51083;BME280;37131;42.694;23.350;2023-07-16T02:27:17;95654.91;;;22.65;88.79
51083;BME280;37131;42.694;23.350;2023-07-16T02:29:42;95658.44;;;22.60;88.98
51083;BME280;37131;42.694;23.350;2023-07-16T02:32:07;95666.84;;;22.68;88.22
51083;BME280;37131;42.694;23.350;2023-07-16T02:34:32;95661.97;;;22.56;88.82
51083;BME280;37131;42.694;23.350;2023-07-16T02:36:58;95661.59;;;22.63;88.83
51083;BME280;37131;42.694;23.350;2023-07-16T02:39:23;95664.47;;;22.66;88.27
51083;BME280;37131;42.694;23.350;2023-07-16T02:41:48;95667.22;;;22.75;87.55
51083;BME280;37131;42.694;23.350;2023-07-16T02:44:14;95667.28;;;22.56;88.68
51083;BME280;37131;42.694;23.350;2023-07-16T02:46:39;95663.53;;;22.57;89.22
51083;BME280;37131;42.694;23.350;2023-07-16T02:49:04;95662.38;;;22.63;88.32
51083;BME280;37131;42.694;23.350;2023-07-16T02:51:30;95667.06;;;22.52;90.78
51083;BME280;37131;42.694;23.350;2023-07-16T02:53:55;95664.53;;;22.61;89.50
51083;BME280;37131;42.694;23.350;2023-07-16T02:56:20;95664.69;;;22.51;90.10
51083;BME280;37131;42.694;23.350;2023-07-16T02:58:45;95662.81;;;22.51;90.02
51083;BME280;37131;42.694;23.350;2023-07-16T03:01:11;95669.16;;;21.98;93.07
51083;BME280;37131;42.694;23.350;2023-07-16T03:03:36;95665.91;;;21.82;94.92
51083;BME280;37131;42.694;23.350;2023-07-16T03:06:02;95670.41;;;21.82;96.07
51083;BME280;37131;42.694;23.350;2023-07-16T03:08:27;95676.41;;;21.44;98.51
51083;BME280;37131;42.694;23.350;2023-07-16T03:10:55;95679.00;;;21.25;100.00
51083;BME280;37131;42.694;23.350;2023-07-16T03:13:20;95681.75;;;21.15;100.00
51083;BME280;37131;42.694;23.350;2023-07-16T03:15:46;95684.47;;;21.10;100.00
51083;BME280;37131;42.694;23.350;2023-07-16T03:18:11;95683.19;;;21.02;100.00
51083;BME280;37131;42.694;23.350;2023-07-16T03:20:36;95684.88;;;20.93;100.00
51083;BME280;37131;42.694;23.350;2023-07-16T03:23:02;95679.63;;;20.88;100.00
51083;BME280;37131;42.694;23.350;2023-07-16T03:25:27;95683.34;;;20.87;100.00
51083;BME280;37131;42.694;23.350;2023-07-16T03:27:52;95691.81;;;20.89;100.00
51083;BME280;37131;42.694;23.350;2023-07-16T03:30:17;95688.13;;;20.84;100.00
51083;BME280;37131;42.694;23.350;2023-07-16T03:32:42;95685.47;;;20.84;100.00
51083;BME280;37131;42.694;23.350;2023-07-16T03:35:10;95693.66;;;20.88;100.00
51083;BME280;37131;42.694;23.350;2023-07-16T03:37:35;95695.84;;;20.81;100.00
51083;BME280;37131;42.694;23.350;2023-07-16T03:40:12;95698.28;;;20.77;100.00
51083;BME280;37131;42.694;23.350;2023-07-16T03:42:37;95695.38;;;20.74;100.00
51083;BME280;37131;42.694;23.350;2023-07-16T03:45:02;95698.22;;;20.82;100.00
51083;BME280;37131;42.694;23.350;2023-07-16T03:47:28;95702.75;;;20.82;100.00
51083;BME280;37131;42.694;23.350;2023-07-16T03:49:53;95699.06;;;20.78;100.00
51083;BME280;37131;42.694;23.350;2023-07-16T03:52:18;95700.88;;;20.82;100.00
51083;BME280;37131;42.694;23.350;2023-07-16T03:54:43;95706.41;;;20.86;100.00
51083;BME280;37131;42.694;23.350;2023-07-16T03:57:09;95701.91;;;20.87;100.00
51083;BME280;37131;42.694;23.350;2023-07-16T03:59:34;95701.84;;;20.92;100.00
51083;BME280;37131;42.694;23.350;2023-07-16T04:01:59;95710.31;;;20.94;100.00
51083;BME280;37131;42.694;23.350;2023-07-16T04:04:24;95709.06;;;20.86;100.00
51083;BME280;37131;42.694;23.350;2023-07-16T04:06:50;95708.53;;;20.84;100.00
51083;BME280;37131;42.694;23.350;2023-07-16T04:09:15;95705.88;;;20.84;100.00
51083;BME280;37131;42.694;23.350;2023-07-16T04:11:40;95705.22;;;21.02;100.00
51083;BME280;37131;42.694;23.350;2023-07-16T04:14:06;95710.00;;;21.00;100.00
51083;BME280;37131;42.694;23.350;2023-07-16T04:16:32;95714.81;;;20.93;100.00
51083;BME280;37131;42.694;23.350;2023-07-16T04:18:57;95716.91;;;20.96;100.00
51083;BME280;37131;42.694;23.350;2023-07-16T04:21:22;95718.78;;;20.96;100.00
51083;BME280;37131;42.694;23.350;2023-07-16T04:23:47;95713.72;;;20.99;100.00
51083;BME280;37131;42.694;23.350;2023-07-16T04:26:13;95720.56;;;21.06;100.00
51083;BME280;37131;42.694;23.350;2023-07-16T04:28:38;95717.56;;;21.12;100.00
51083;BME280;37131;42.694;23.350;2023-07-16T04:31:04;95720.94;;;21.23;100.00
51083;BME280;37131;42.694;23.350;2023-07-16T04:33:29;95720.41;;;21.21;100.00
51083;BME280;37131;42.694;23.350;2023-07-16T04:35:55;95719.84;;;21.24;100.00
51083;BME280;37131;42.694;23.350;2023-07-16T04:38:20;95720.09;;;21.28;100.00
51083;BME280;37131;42.694;23.350;2023-07-16T04:40:45;95727.47;;;21.31;100.00
51083;BME280;37131;42.694;23.350;2023-07-16T04:43:10;95723.41;;;21.38;100.00
51083;BME280;37131;42.694;23.350;2023-07-16T04:45:36;95726.81;;;21.44;100.00
51083;BME280;37131;42.694;23.350;2023-07-16T04:48:01;95723.88;;;21.46;100.00
51083;BME280;37131;42.694;23.350;2023-07-16T04:50:26;95728.97;;;21.42;100.00
51083;BME280;37131;42.694;23.350;2023-07-16T04:52:51;95730.31;;;21.40;100.00
51083;BME280;37131;42.694;23.350;2023-07-16T04:55:17;95735.25;;;21.51;100.00
51083;BME280;37131;42.694;23.350;2023-07-16T04:57:42;95728.81;;;21.58;100.00
51083;BME280;37131;42.694;23.350;2023-07-16T05:00:07;95731.28;;;21.73;100.00
51083;BME280;37131;42.694;23.350;2023-07-16T05:02:33;95730.75;;;21.76;100.00
51083;BME280;37131;42.694;23.350;2023-07-16T05:04:58;95737.56;;;21.82;100.00
51083;BME280;37131;42.694;23.350;2023-07-16T05:07:23;95729.78;;;21.91;100.00
51083;BME280;37131;42.694;23.350;2023-07-16T05:09:48;95732.19;;;21.87;99.92
51083;BME280;37131;42.694;23.350;2023-07-16T05:12:14;95735.88;;;21.92;99.91
51083;BME280;37131;42.694;23.350;2023-07-16T05:14:42;95736.78;;;21.82;99.61
51083;BME280;37131;42.694;23.350;2023-07-16T05:17:08;95733.00;;;21.88;100.00
51083;BME280;37131;42.694;23.350;2023-07-16T05:19:33;95727.34;;;21.95;99.10
51083;BME280;37131;42.694;23.350;2023-07-16T05:21:58;95730.34;;;22.07;98.89
51083;BME280;37131;42.694;23.350;2023-07-16T05:24:24;95735.25;;;22.19;97.70
51083;BME280;37131;42.694;23.350;2023-07-16T05:26:49;95741.84;;;22.21;97.15
51083;BME280;37131;42.694;23.350;2023-07-16T05:29:15;95740.94;;;22.31;96.96
51083;BME280;37131;42.694;23.350;2023-07-16T05:31:42;95733.31;;;22.24;96.14
51083;BME280;37131;42.694;23.350;2023-07-16T05:34:07;95741.97;;;22.35;95.56
51083;BME280;37131;42.694;23.350;2023-07-16T05:36:32;95734.72;;;22.41;94.95
51083;BME280;37131;42.694;23.350;2023-07-16T05:38:57;95729.09;;;22.62;94.32
51083;BME280;37131;42.694;23.350;2023-07-16T05:41:23;95743.41;;;22.66;94.08
51083;BME280;37131;42.694;23.350;2023-07-16T05:43:48;95742.31;;;22.86;93.50
51083;BME280;37131;42.694;23.350;2023-07-16T05:46:14;95702.47;;;22.67;92.75
51083;BME280;37131;42.694;23.350;2023-07-16T05:48:39;95746.66;;;22.95;93.24
51083;BME280;37131;42.694;23.350;2023-07-16T05:51:04;95728.91;;;22.91;91.89
51083;BME280;37131;42.694;23.350;2023-07-16T05:53:29;95751.38;;;22.99;92.07
51083;BME280;37131;42.694;23.350;2023-07-16T05:55:55;95749.81;;;23.17;92.01
51083;BME280;37131;42.694;23.350;2023-07-16T05:58:20;95748.81;;;23.26;89.01
51083;BME280;37131;42.694;23.350;2023-07-16T06:00:45;95753.69;;;23.38;86.95
51083;BME280;37131;42.694;23.350;2023-07-16T06:03:10;95751.22;;;23.42;87.81
51083;BME280;37131;42.694;23.350;2023-07-16T06:05:36;95756.66;;;23.64;87.48
51083;BME280;37131;42.694;23.350;2023-07-16T06:08:02;95747.59;;;23.65;86.00
51083;BME280;37131;42.694;23.350;2023-07-16T06:10:27;95755.41;;;23.76;87.24
51083;BME280;37131;42.694;23.350;2023-07-16T06:12:52;95749.97;;;23.81;84.79
51083;BME280;37131;42.694;23.350;2023-07-16T06:15:18;95750.91;;;23.90;83.77
51083;BME280;37131;42.694;23.350;2023-07-16T06:17:43;95750.75;;;24.09;83.58
51083;BME280;37131;42.694;23.350;2023-07-16T06:20:08;95757.38;;;24.12;84.11
51083;BME280;37131;42.694;23.350;2023-07-16T06:22:34;95752.81;;;24.26;83.07
51083;BME280;37131;42.694;23.350;2023-07-16T06:24:59;95745.59;;;24.27;81.25
51083;BME280;37131;42.694;23.350;2023-07-16T06:27:25;95752.06;;;24.48;80.06
51083;BME280;37131;42.694;23.350;2023-07-16T06:29:50;95746.81;;;24.57;79.67
51083;BME280;37131;42.694;23.350;2023-07-16T06:32:16;95743.47;;;24.51;78.13
51083;BME280;37131;42.694;23.350;2023-07-16T06:34:41;95746.88;;;24.29;78.58
51083;BME280;37131;42.694;23.350;2023-07-16T06:37:06;95741.59;;;24.15;78.94
51083;BME280;37131;42.694;23.350;2023-07-16T06:39:32;95736.22;;;24.29;79.59
51083;BME280;37131;42.694;23.350;2023-07-16T06:41:57;95740.81;;;24.51;79.63
51083;BME280;37131;42.694;23.350;2023-07-16T06:44:22;95744.06;;;24.62;80.77
51083;BME280;37131;42.694;23.350;2023-07-16T06:46:48;95742.97;;;24.63;78.19
51083;BME280;37131;42.694;23.350;2023-07-16T06:49:13;95740.00;;;24.87;77.03
51083;BME280;37131;42.694;23.350;2023-07-16T06:51:38;95739.34;;;25.04;76.99
51083;BME280;37131;42.694;23.350;2023-07-16T06:54:04;95727.63;;;24.92;75.02
51083;BME280;37131;42.694;23.350;2023-07-16T06:56:29;95733.63;;;24.97;75.37
51083;BME280;37131;42.694;23.350;2023-07-16T06:58:54;95732.97;;;24.92;73.84
51083;BME280;37131;42.694;23.350;2023-07-16T07:01:19;95732.81;;;24.88;74.65
51083;BME280;37131;42.694;23.350;2023-07-16T07:03:45;95731.44;;;24.99;72.86
51083;BME280;37131;42.694;23.350;2023-07-16T07:06:10;95729.63;;;25.09;73.54
51083;BME280;37131;42.694;23.350;2023-07-16T07:08:36;95732.06;;;24.96;71.63
51083;BME280;37131;42.694;23.350;2023-07-16T07:11:01;95734.53;;;25.15;72.83
51083;BME280;37131;42.694;23.350;2023-07-16T07:13:26;95729.13;;;25.29;72.05
51083;BME280;37131;42.694;23.350;2023-07-16T07:15:52;95730.75;;;25.39;74.30
51083;BME280;37131;42.694;23.350;2023-07-16T07:18:17;95731.09;;;25.46;70.95
51083;BME280;37131;42.694;23.350;2023-07-16T07:20:42;95721.84;;;25.52;71.53
51083;BME280;37131;42.694;23.350;2023-07-16T07:23:08;95726.63;;;25.73;70.21
51083;BME280;37131;42.694;23.350;2023-07-16T07:25:33;95732.97;;;25.86;69.08
51083;BME280;37131;42.694;23.350;2023-07-16T07:27:59;95723.56;;;25.88;68.40
51083;BME280;37131;42.694;23.350;2023-07-16T07:30:24;95730.06;;;26.05;68.65
51083;BME280;37131;42.694;23.350;2023-07-16T07:32:50;95728.69;;;26.16;66.05
51083;BME280;37131;42.694;23.350;2023-07-16T07:35:15;95728.19;;;26.23;68.21
51083;BME280;37131;42.694;23.350;2023-07-16T07:37:40;95726.38;;;25.92;67.41
51083;BME280;37131;42.694;23.350;2023-07-16T07:40:06;95725.41;;;25.79;67.08
51083;BME280;37131;42.694;23.350;2023-07-16T07:42:32;95726.22;;;25.80;68.34
51083;BME280;37131;42.694;23.350;2023-07-16T07:44:58;95725.41;;;25.70;67.16
51083;BME280;37131;42.694;23.350;2023-07-16T07:47:23;95717.91;;;25.90;68.06
51083;BME280;37131;42.694;23.350;2023-07-16T07:49:48;95726.94;;;26.03;67.53
51083;BME280;37131;42.694;23.350;2023-07-16T07:52:13;95721.44;;;26.08;67.82
51083;BME280;37131;42.694;23.350;2023-07-16T07:54:39;95723.31;;;26.07;67.00
51083;BME280;37131;42.694;23.350;2023-07-16T07:57:04;95722.81;;;26.05;66.03
51083;BME280;37131;42.694;23.350;2023-07-16T07:59:30;95723.00;;;26.00;66.79
51083;BME280;37131;42.694;23.350;2023-07-16T08:01:55;95720.19;;;26.23;66.37
51083;BME280;37131;42.694;23.350;2023-07-16T08:04:20;95718.16;;;26.29;65.87
51083;BME280;37131;42.694;23.350;2023-07-16T08:06:46;95721.59;;;26.38;65.94
51083;BME280;37131;42.694;23.350;2023-07-16T08:09:11;95717.84;;;26.48;65.34
51083;BME280;37131;42.694;23.350;2023-07-16T08:11:36;95709.69;;;26.70;64.96
51083;BME280;37131;42.694;23.350;2023-07-16T08:14:01;95714.25;;;26.78;65.35
51083;BME280;37131;42.694;23.350;2023-07-16T08:16:27;95711.88;;;26.86;64.69
51083;BME280;37131;42.694;23.350;2023-07-16T08:18:52;95716.91;;;26.87;66.11
51083;BME280;37131;42.694;23.350;2023-07-16T08:21:17;95715.94;;;27.09;64.86
51083;BME280;37131;42.694;23.350;2023-07-16T08:23:46;95707.84;;;27.27;62.83
51083;BME280;37131;42.694;23.350;2023-07-16T08:26:11;95709.28;;;27.24;63.13
51083;BME280;37131;42.694;23.350;2023-07-16T08:28:37;95717.69;;;26.88;64.03
51083;BME280;37131;42.694;23.350;2023-07-16T08:31:03;95714.22;;;26.96;64.35
51083;BME280;37131;42.694;23.350;2023-07-16T08:33:28;95719.50;;;27.13;63.61
51083;BME280;37131;42.694;23.350;2023-07-16T08:35:53;95715.41;;;27.16;63.44
51083;BME280;37131;42.694;23.350;2023-07-16T08:38:18;95721.81;;;27.33;63.63
51083;BME280;37131;42.694;23.350;2023-07-16T08:40:44;95688.31;;;27.26;62.18
51083;BME280;37131;42.694;23.350;2023-07-16T08:43:11;95718.75;;;27.60;63.15
51083;BME280;37131;42.694;23.350;2023-07-16T08:45:40;95720.91;;;27.76;60.87
51083;BME280;37131;42.694;23.350;2023-07-16T08:48:07;95711.56;;;27.82;60.62
51083;BME280;37131;42.694;23.350;2023-07-16T08:50:33;95707.72;;;27.92;60.64
51083;BME280;37131;42.694;23.350;2023-07-16T08:53:00;95708.66;;;27.66;60.83
51083;BME280;37131;42.694;23.350;2023-07-16T08:55:26;95714.09;;;27.78;60.12
51083;BME280;37131;42.694;23.350;2023-07-16T08:57:51;95711.34;;;27.66;59.46
51083;BME280;37131;42.694;23.350;2023-07-16T09:00:16;95706.38;;;27.77;60.10
51083;BME280;37131;42.694;23.350;2023-07-16T09:02:42;95701.91;;;27.90;60.26
51083;BME280;37131;42.694;23.350;2023-07-16T09:05:08;95704.78;;;28.14;61.89
51083;BME280;37131;42.694;23.350;2023-07-16T09:07:34;95706.81;;;28.17;60.25
51083;BME280;37131;42.694;23.350;2023-07-16T09:10:00;95699.97;;;28.29;58.88
51083;BME280;37131;42.694;23.350;2023-07-16T09:12:26;95701.72;;;28.46;59.49
51083;BME280;37131;42.694;23.350;2023-07-16T09:14:51;95702.56;;;28.59;57.58
51083;BME280;37131;42.694;23.350;2023-07-16T09:17:23;95697.25;;;28.50;58.08
51083;BME280;37131;42.694;23.350;2023-07-16T09:19:50;95691.56;;;28.51;57.33
51083;BME280;37131;42.694;23.350;2023-07-16T09:22:16;95688.03;;;28.39;58.24
51083;BME280;37131;42.694;23.350;2023-07-16T09:24:43;95692.41;;;28.43;58.99
51083;BME280;37131;42.694;23.350;2023-07-16T09:27:10;95685.09;;;28.52;58.81
51083;BME280;37131;42.694;23.350;2023-07-16T09:29:37;95691.63;;;28.85;57.80
51083;BME280;37131;42.694;23.350;2023-07-16T09:32:03;95686.06;;;29.02;57.70
51083;BME280;37131;42.694;23.350;2023-07-16T09:34:28;95674.56;;;29.14;55.43
51083;BME280;37131;42.694;23.350;2023-07-16T09:36:54;95683.34;;;29.24;55.79
51083;BME280;37131;42.694;23.350;2023-07-16T09:39:19;95678.88;;;29.28;55.10
51083;BME280;37131;42.694;23.350;2023-07-16T09:41:48;95677.31;;;29.39;55.97
51083;BME280;37131;42.694;23.350;2023-07-16T09:44:14;95682.38;;;29.53;55.59
51083;BME280;37131;42.694;23.350;2023-07-16T09:46:40;95672.03;;;29.67;54.84
51083;BME280;37131;42.694;23.350;2023-07-16T09:49:06;95680.13;;;29.43;54.59
51083;BME280;37131;42.694;23.350;2023-07-16T09:51:32;95666.22;;;29.40;53.64
51083;BME280;37131;42.694;23.350;2023-07-16T09:53:59;95670.38;;;29.63;54.49
51083;BME280;37131;42.694;23.350;2023-07-16T09:56:26;95665.44;;;29.77;54.08
51083;BME280;37131;42.694;23.350;2023-07-16T09:58:55;95667.47;;;29.68;54.10
51083;BME280;37131;42.694;23.350;2023-07-16T10:01:22;95669.16;;;29.97;55.58
51083;BME280;37131;42.694;23.350;2023-07-16T10:03:48;95665.28;;;30.23;52.70
51083;BME280;37131;42.694;23.350;2023-07-16T10:06:15;95669.78;;;30.06;53.21
51083;BME280;37131;42.694;23.350;2023-07-16T10:08:40;95653.75;;;30.10;52.84
51083;BME280;37131;42.694;23.350;2023-07-16T10:11:15;95650.50;;;30.17;52.01
51083;BME280;37131;42.694;23.350;2023-07-16T10:13:40;95652.28;;;30.13;53.13
51083;BME280;37131;42.694;23.350;2023-07-16T10:16:05;95647.13;;;30.20;52.41
51083;BME280;37131;42.694;23.350;2023-07-16T10:18:33;95646.72;;;30.34;52.15
51083;BME280;37131;42.694;23.350;2023-07-16T10:21:03;95641.59;;;30.41;52.08
51083;BME280;37131;42.694;23.350;2023-07-16T10:23:40;95639.44;;;30.47;50.86
51083;BME280;37131;42.694;23.350;2023-07-16T10:26:06;95639.72;;;30.57;51.21
51083;BME280;37131;42.694;23.350;2023-07-16T10:28:32;95647.59;;;30.50;51.34
51083;BME280;37131;42.694;23.350;2023-07-16T10:30:58;95634.03;;;30.75;51.84
51083;BME280;37131;42.694;23.350;2023-07-16T10:33:23;95645.16;;;30.89;51.65
51083;BME280;37131;42.694;23.350;2023-07-16T10:35:48;95634.22;;;30.82;51.36
51083;BME280;37131;42.694;23.350;2023-07-16T10:38:13;95627.31;;;31.13;50.09
51083;BME280;37131;42.694;23.350;2023-07-16T10:40:45;95628.84;;;30.98;50.35
51083;BME280;37131;42.694;23.350;2023-07-16T10:43:11;95629.22;;;30.52;51.22
51083;BME280;37131;42.694;23.350;2023-07-16T10:45:36;95631.03;;;30.48;51.07
51083;BME280;37131;42.694;23.350;2023-07-16T10:48:02;95636.91;;;30.82;51.62
51083;BME280;37131;42.694;23.350;2023-07-16T10:50:27;95640.78;;;31.13;51.18
51083;BME280;37131;42.694;23.350;2023-07-16T10:52:53;95632.06;;;31.36;50.07
51083;BME280;37131;42.694;23.350;2023-07-16T10:55:19;95625.31;;;31.26;49.50
51083;BME280;37131;42.694;23.350;2023-07-16T10:57:46;95628.69;;;31.39;49.36
51083;BME280;37131;42.694;23.350;2023-07-16T11:00:11;95618.16;;;31.49;49.15
51083;BME280;37131;42.694;23.350;2023-07-16T11:02:39;95624.03;;;31.71;47.48
51083;BME280;37131;42.694;23.350;2023-07-16T11:05:05;95623.63;;;31.53;48.66
51083;BME280;37131;42.694;23.350;2023-07-16T11:07:30;95616.59;;;31.33;48.18
51083;BME280;37131;42.694;23.350;2023-07-16T11:09:56;95618.44;;;31.28;47.79
51083;BME280;37131;42.694;23.350;2023-07-16T11:12:22;95616.06;;;30.79;47.29
51083;BME280;37131;42.694;23.350;2023-07-16T11:14:48;95610.34;;;31.28;46.69
51083;BME280;37131;42.694;23.350;2023-07-16T11:17:14;95611.47;;;31.59;46.19
51083;BME280;37131;42.694;23.350;2023-07-16T11:19:40;95609.25;;;31.81;46.16
51083;BME280;37131;42.694;23.350;2023-07-16T11:22:07;95603.88;;;32.00;46.30
51083;BME280;37131;42.694;23.350;2023-07-16T11:24:39;95577.06;;;31.88;45.04
51083;BME280;37131;42.694;23.350;2023-07-16T11:27:06;95603.22;;;31.52;47.41
51083;BME280;37131;42.694;23.350;2023-07-16T11:29:34;95597.31;;;31.62;45.29
51083;BME280;37131;42.694;23.350;2023-07-16T11:32:01;95601.00;;;31.74;46.56
51083;BME280;37131;42.694;23.350;2023-07-16T11:34:27;95601.88;;;31.78;44.96
51083;BME280;37131;42.694;23.350;2023-07-16T11:36:52;95595.72;;;31.77;45.28
51083;BME280;37131;42.694;23.350;2023-07-16T11:39:17;95590.13;;;31.86;44.76
51083;BME280;37131;42.694;23.350;2023-07-16T11:41:53;95590.72;;;32.15;45.88
51083;BME280;37131;42.694;23.350;2023-07-16T11:44:19;95586.16;;;32.39;43.43
51083;BME280;37131;42.694;23.350;2023-07-16T11:46:46;95584.97;;;32.16;43.17
51083;BME280;37131;42.694;23.350;2023-07-16T11:49:11;95586.06;;;31.96;42.96
51083;BME280;37131;42.694;23.350;2023-07-16T11:51:36;95585.25;;;32.11;43.52
51083;BME280;37131;42.694;23.350;2023-07-16T11:54:02;95583.66;;;31.91;42.34
51083;BME280;37131;42.694;23.350;2023-07-16T11:56:27;95587.94;;;32.11;42.36
51083;BME280;37131;42.694;23.350;2023-07-16T11:58:52;95583.53;;;32.42;42.32
51083;BME280;37131;42.694;23.350;2023-07-16T12:01:17;95583.13;;;32.63;42.22
51083;BME280;37131;42.694;23.350;2023-07-16T12:03:43;95574.50;;;32.77;42.24
51083;BME280;37131;42.694;23.350;2023-07-16T12:06:08;95572.81;;;32.92;40.96
51083;BME280;37131;42.694;23.350;2023-07-16T12:08:33;95573.75;;;33.00;39.57
51083;BME280;37131;42.694;23.350;2023-07-16T12:10:58;95578.25;;;32.69;40.25
51083;BME280;37131;42.694;23.350;2023-07-16T12:13:24;95580.00;;;32.81;39.34
51083;BME280;37131;42.694;23.350;2023-07-16T12:15:49;95576.94;;;32.82;40.51
51083;BME280;37131;42.694;23.350;2023-07-16T12:18:14;95576.31;;;32.69;40.82
51083;BME280;37131;42.694;23.350;2023-07-16T12:20:39;95575.31;;;32.35;41.30
51083;BME280;37131;42.694;23.350;2023-07-16T12:23:05;95571.22;;;32.45;40.36
51083;BME280;37131;42.694;23.350;2023-07-16T12:25:30;95567.84;;;32.28;40.37
51083;BME280;37131;42.694;23.350;2023-07-16T12:27:55;95568.25;;;32.50;39.66
51083;BME280;37131;42.694;23.350;2023-07-16T12:30:23;95555.22;;;32.75;40.92
51083;BME280;37131;42.694;23.350;2023-07-16T12:32:48;95563.44;;;32.63;39.60
51083;BME280;37131;42.694;23.350;2023-07-16T12:35:13;95553.47;;;32.86;39.43
51083;BME280;37131;42.694;23.350;2023-07-16T12:37:39;95544.97;;;33.11;39.12
51083;BME280;37131;42.694;23.350;2023-07-16T12:40:04;95550.66;;;33.29;40.72
51083;BME280;37131;42.694;23.350;2023-07-16T12:42:30;95555.44;;;33.39;39.58
51083;BME280;37131;42.694;23.350;2023-07-16T12:44:55;95554.41;;;33.48;38.46
51083;BME280;37131;42.694;23.350;2023-07-16T12:47:20;95542.13;;;33.54;37.55